AAL21 EGLL-KDFW
Flight info
| Callsign | AAL21 |
|---|---|
| Flight time | N/A |
| Altitude | 24000 |
| Route | CPT L9 DIDZA N14 OKSAW/N0488F320 N14 ELNIF DCT MEDOG/N0483F340 DCT KRAGY DCT PEMOB DCT VATRY DCT RESNO/M084F340 DCT 56N020W 56N030W 56N040W 55N050W DCT LOMSI/N0492F340 N668A TAFFY/N0482F360 DCT PQI DCT CABCI Q29 NIPPY DCT WILET DCT REBBL DCT LEJOY DCT EMNEM Q71 GEFFS DCT TONIO/N0481F380 DCT ARTUR DCT NIOLA DCT VLKNN Q30 IZAAC DCT YUYUN BEREE3 |
| Aircraft | B77W/H-SDE1E2E3FGHIJ2J3J4J5M1RWXY/LB1D1 |
Departure
| Time | 2026-05-05 05:06 |
|---|---|
| Airport | London Heathrow Airport (EGLL) |
Arrival
| Time | N/A |
|---|---|
| Airport | Dallas Fort Worth International Airport (KDFW) |
| Time | Latitude | Longitude | Altitude | Speed | Heading |
|---|---|---|---|---|---|
| 2026-05-05 04:16 | 51.47311 | -0.46414 | 92 ft | 0 kts | 25° |
| 2026-05-05 04:55 | 51.47310 | -0.46415 | 91 ft | 2 kts | 25° |
| 2026-05-05 04:56 | 51.47287 | -0.46430 | 92 ft | 4 kts | 13° |
| 2026-05-05 04:56 | 51.47261 | -0.46434 | 91 ft | 4 kts | 348° |
| 2026-05-05 04:56 | 51.47242 | -0.46420 | 91 ft | 0 kts | 296° |
| 2026-05-05 04:59 | 51.47244 | -0.46483 | 94 ft | 8 kts | 265° |
| 2026-05-05 04:59 | 51.47240 | -0.46576 | 91 ft | 9 kts | 268° |
| 2026-05-05 04:59 | 51.47238 | -0.46682 | 91 ft | 9 kts | 268° |
| 2026-05-05 04:59 | 51.47205 | -0.46727 | 95 ft | 11 kts | 188° |
| 2026-05-05 05:00 | 51.47097 | -0.46733 | 93 ft | 14 kts | 192° |
| 2026-05-05 05:00 | 51.47035 | -0.46843 | 94 ft | 14 kts | 217° |
| 2026-05-05 05:00 | 51.46941 | -0.46868 | 94 ft | 14 kts | 179° |
| 2026-05-05 05:00 | 51.46846 | -0.46866 | 91 ft | 14 kts | 180° |
| 2026-05-05 05:01 | 51.46760 | -0.46889 | 96 ft | 11 kts | 227° |
| 2026-05-05 05:01 | 51.46746 | -0.47026 | 95 ft | 16 kts | 269° |
| 2026-05-05 05:01 | 51.46747 | -0.47261 | 95 ft | 25 kts | 269° |
| 2026-05-05 05:01 | 51.46747 | -0.47540 | 95 ft | 25 kts | 270° |
| 2026-05-05 05:02 | 51.46743 | -0.47817 | 91 ft | 25 kts | 269° |
| 2026-05-05 05:02 | 51.46744 | -0.48093 | 91 ft | 24 kts | 270° |
| 2026-05-05 05:02 | 51.46740 | -0.48363 | 92 ft | 24 kts | 268° |
| 2026-05-05 05:02 | 51.46741 | -0.48566 | 91 ft | 15 kts | 270° |
| 2026-05-05 05:03 | 51.46737 | -0.48712 | 92 ft | 8 kts | 246° |
| 2026-05-05 05:03 | 51.46686 | -0.48750 | 95 ft | 8 kts | 189° |
| 2026-05-05 05:03 | 51.46641 | -0.48757 | 95 ft | 5 kts | 189° |
| 2026-05-05 05:03 | 51.46603 | -0.48770 | 94 ft | 6 kts | 194° |
| 2026-05-05 05:04 | 51.46558 | -0.48788 | 94 ft | 8 kts | 189° |
| 2026-05-05 05:04 | 51.46503 | -0.48765 | 97 ft | 9 kts | 143° |
| 2026-05-05 05:04 | 51.46477 | -0.48688 | 97 ft | 6 kts | 99° |
| 2026-05-05 05:04 | 51.46477 | -0.48634 | 96 ft | 3 kts | 88° |
| 2026-05-05 05:05 | 51.46477 | -0.48632 | 96 ft | 0 kts | 88° |
| 2026-05-05 05:05 | 51.46477 | -0.48605 | 96 ft | 17 kts | 89° |
| 2026-05-05 05:05 | 51.46481 | -0.47989 | 91 ft | 92 kts | 90° |
| 2026-05-05 05:06 | 51.46484 | -0.46600 | 96 ft | 155 kts | 90° |
| 2026-05-05 05:06 | 51.46488 | -0.44598 | 146 ft | 196 kts | 89° |
| 2026-05-05 05:06 | 51.46488 | -0.42453 | 788 ft | 194 kts | 88° |
| 2026-05-05 05:06 | 51.46482 | -0.40308 | 1490 ft | 192 kts | 88° |
| 2026-05-05 05:07 | 51.46479 | -0.38158 | 2099 ft | 194 kts | 87° |
| 2026-05-05 05:07 | 51.46477 | -0.35983 | 2663 ft | 197 kts | 86° |
| 2026-05-05 05:07 | 51.46366 | -0.33759 | 3024 ft | 211 kts | 108° |
| 2026-05-05 05:07 | 51.45382 | -0.31870 | 3191 ft | 240 kts | 151° |
| 2026-05-05 05:08 | 51.43690 | -0.31361 | 3409 ft | 261 kts | 192° |
| 2026-05-05 05:08 | 51.42076 | -0.32671 | 3973 ft | 266 kts | 230° |
| 2026-05-05 05:08 | 51.41233 | -0.35251 | 4666 ft | 264 kts | 265° |
| 2026-05-05 05:08 | 51.41260 | -0.38159 | 5362 ft | 262 kts | 277° |
| 2026-05-05 05:09 | 51.41438 | -0.41057 | 5949 ft | 263 kts | 277° |
| 2026-05-05 05:09 | 51.41636 | -0.43993 | 6695 ft | 266 kts | 277° |
| 2026-05-05 05:09 | 51.41840 | -0.46939 | 7457 ft | 269 kts | 277° |
| 2026-05-05 05:09 | 51.42048 | -0.49947 | 8188 ft | 274 kts | 277° |
| 2026-05-05 05:10 | 51.42257 | -0.53004 | 8935 ft | 278 kts | 276° |
| 2026-05-05 05:10 | 51.42466 | -0.56107 | 9684 ft | 282 kts | 276° |
| 2026-05-05 05:10 | 51.42675 | -0.59248 | 10341 ft | 288 kts | 276° |
| 2026-05-05 05:10 | 51.42891 | -0.62537 | 10619 ft | 309 kts | 276° |
| 2026-05-05 05:11 | 51.43124 | -0.66089 | 10820 ft | 332 kts | 276° |
| 2026-05-05 05:11 | 51.43371 | -0.69907 | 11012 ft | 356 kts | 276° |
| 2026-05-05 05:11 | 51.43630 | -0.73943 | 11467 ft | 370 kts | 276° |
| 2026-05-05 05:11 | 51.43994 | -0.78073 | 12115 ft | 379 kts | 281° |
| 2026-05-05 05:12 | 51.44529 | -0.82244 | 12852 ft | 385 kts | 282° |
| 2026-05-05 05:12 | 51.45084 | -0.86474 | 13652 ft | 390 kts | 282° |
| 2026-05-05 05:12 | 51.45620 | -0.90767 | 14368 ft | 395 kts | 281° |
| 2026-05-05 05:12 | 51.46123 | -0.95118 | 15118 ft | 399 kts | 280° |
| 2026-05-05 05:13 | 51.46621 | -0.99517 | 15846 ft | 403 kts | 280° |
| 2026-05-05 05:13 | 51.47127 | -1.03973 | 16521 ft | 409 kts | 280° |
| 2026-05-05 05:13 | 51.47647 | -1.08483 | 17233 ft | 413 kts | 280° |
| 2026-05-05 05:13 | 51.48167 | -1.12979 | 17932 ft | 418 kts | 280° |
| 2026-05-05 05:14 | 51.48700 | -1.17588 | 18575 ft | 420 kts | 281° |
| 2026-05-05 05:14 | 51.49638 | -1.22038 | 18978 ft | 427 kts | 299° |
| 2026-05-05 05:14 | 51.51500 | -1.25752 | 19523 ft | 428 kts | 318° |
| 2026-05-05 05:14 | 51.53748 | -1.28912 | 20074 ft | 432 kts | 318° |
| 2026-05-05 05:15 | 51.55981 | -1.32183 | 20648 ft | 437 kts | 317° |
| 2026-05-05 05:15 | 51.58198 | -1.35550 | 21271 ft | 440 kts | 314° |
| 2026-05-05 05:15 | 51.60238 | -1.39227 | 21891 ft | 442 kts | 307° |
| 2026-05-05 05:15 | 51.62036 | -1.43250 | 22506 ft | 445 kts | 301° |
| 2026-05-05 05:16 | 51.63568 | -1.47587 | 23099 ft | 447 kts | 296° |
| 2026-05-05 05:16 | 51.64991 | -1.52052 | 23645 ft | 451 kts | 296° |
| 2026-05-05 05:16 | 51.66440 | -1.56549 | 24129 ft | 454 kts | 296° |
| 2026-05-05 05:16 | 51.67917 | -1.61058 | 24635 ft | 456 kts | 296° |
| 2026-05-05 05:17 | 51.69283 | -1.65672 | 25127 ft | 457 kts | 290° |
| 2026-05-05 05:17 | 51.70287 | -1.70536 | 25600 ft | 458 kts | 283° |
| 2026-05-05 05:17 | 51.70975 | -1.75547 | 26072 ft | 458 kts | 276° |
| 2026-05-05 05:17 | 51.71337 | -1.80653 | 26529 ft | 460 kts | 274° |
| 2026-05-05 05:18 | 51.71691 | -1.85792 | 26968 ft | 463 kts | 277° |
| 2026-05-05 05:18 | 51.72343 | -1.90897 | 27404 ft | 467 kts | 281° |
| 2026-05-05 05:18 | 51.73128 | -1.95994 | 27812 ft | 470 kts | 282° |
| 2026-05-05 05:18 | 51.73929 | -2.01125 | 28167 ft | 474 kts | 282° |
| 2026-05-05 05:19 | 51.74726 | -2.06291 | 28566 ft | 476 kts | 282° |
| 2026-05-05 05:19 | 51.75512 | -2.11483 | 28967 ft | 477 kts | 281° |
| 2026-05-05 05:19 | 51.76289 | -2.16703 | 29341 ft | 479 kts | 281° |
| 2026-05-05 05:19 | 51.77061 | -2.21946 | 29681 ft | 481 kts | 281° |
| 2026-05-05 05:20 | 51.77831 | -2.27216 | 30022 ft | 483 kts | 281° |
| 2026-05-05 05:20 | 51.78599 | -2.32485 | 30403 ft | 482 kts | 281° |
| 2026-05-05 05:20 | 51.79365 | -2.37760 | 30739 ft | 482 kts | 282° |
| 2026-05-05 05:20 | 51.80131 | -2.43033 | 31043 ft | 483 kts | 282° |
| 2026-05-05 05:21 | 51.80900 | -2.48344 | 31186 ft | 488 kts | 282° |
| 2026-05-05 05:21 | 51.81673 | -2.53701 | 31404 ft | 490 kts | 282° |
| 2026-05-05 05:21 | 51.82425 | -2.59063 | 31769 ft | 489 kts | 282° |
| 2026-05-05 05:21 | 51.83141 | -2.64422 | 32137 ft | 487 kts | 281° |
| 2026-05-05 05:22 | 51.83845 | -2.69784 | 32445 ft | 488 kts | 282° |
| 2026-05-05 05:22 | 51.84552 | -2.75145 | 32719 ft | 488 kts | 282° |
| 2026-05-05 05:22 | 51.85263 | -2.80517 | 33003 ft | 489 kts | 282° |
| 2026-05-05 05:22 | 51.85977 | -2.85888 | 33259 ft | 489 kts | 282° |
| 2026-05-05 05:23 | 51.86694 | -2.91264 | 33545 ft | 489 kts | 282° |
| 2026-05-05 05:23 | 51.87410 | -2.96638 | 33771 ft | 490 kts | 282° |
| 2026-05-05 05:23 | 51.88130 | -3.02046 | 33930 ft | 493 kts | 282° |
| 2026-05-05 05:24 | 51.89567 | -3.12922 | 34010 ft | 494 kts | 282° |
| 2026-05-05 05:24 | 51.90984 | -3.23750 | 34019 ft | 489 kts | 282° |
| 2026-05-05 05:25 | 51.92381 | -3.34508 | 34029 ft | 487 kts | 282° |
| 2026-05-05 05:25 | 51.93766 | -3.45253 | 34035 ft | 488 kts | 282° |
| 2026-05-05 05:26 | 51.95146 | -3.56027 | 34047 ft | 489 kts | 282° |
| 2026-05-05 05:26 | 51.96520 | -3.66843 | 34043 ft | 491 kts | 282° |
| 2026-05-05 05:27 | 51.97891 | -3.77701 | 34042 ft | 492 kts | 282° |
| 2026-05-05 05:27 | 51.99926 | -3.93992 | 34032 ft | 495 kts | 283° |
| 2026-05-05 05:28 | 52.01285 | -4.04961 | 34045 ft | 497 kts | 283° |
| 2026-05-05 05:28 | 52.02648 | -4.16059 | 34041 ft | 499 kts | 283° |
| 2026-05-05 05:29 | 52.03993 | -4.27111 | 34044 ft | 499 kts | 283° |
| 2026-05-05 05:29 | 52.05327 | -4.38172 | 34041 ft | 499 kts | 283° |
| 2026-05-05 05:30 | 52.06641 | -4.49151 | 34041 ft | 498 kts | 283° |
| 2026-05-05 05:30 | 52.07950 | -4.60181 | 34043 ft | 496 kts | 283° |
| 2026-05-05 05:31 | 52.09246 | -4.71188 | 34043 ft | 495 kts | 283° |
| 2026-05-05 05:31 | 52.10529 | -4.82182 | 34048 ft | 494 kts | 283° |
| 2026-05-05 05:32 | 52.11802 | -4.93164 | 34059 ft | 494 kts | 283° |
| 2026-05-05 05:32 | 52.13053 | -5.04130 | 34052 ft | 492 kts | 282° |